sensor_id;sensor_type;location;lat;lon;timestamp;pressure;altitude;pressure_sealevel;temperature;humidity
73551;BME280;61816;53.582;10.096;2022-10-16T00:01:40;100682.66;;;14.55;99.75
73551;BME280;61816;53.582;10.096;2022-10-16T00:04:06;100673.53;;;14.63;99.56
73551;BME280;61816;53.582;10.096;2022-10-16T00:06:32;100676.44;;;14.76;97.73
73551;BME280;61816;53.582;10.096;2022-10-16T00:08:58;100683.38;;;14.79;97.47
73551;BME280;61816;53.582;10.096;2022-10-16T00:11:30;100674.63;;;14.83;97.22
73551;BME280;61816;53.582;10.096;2022-10-16T00:13:58;100682.53;;;14.78;96.75
73551;BME280;61816;53.582;10.096;2022-10-16T00:16:25;100690.44;;;14.73;96.83
73551;BME280;61816;53.582;10.096;2022-10-16T00:18:50;100690.25;;;14.60;97.33
73551;BME280;61816;53.582;10.096;2022-10-16T00:21:21;100687.44;;;14.68;96.20
73551;BME280;61816;53.582;10.096;2022-10-16T00:23:55;100687.34;;;14.76;95.51
73551;BME280;61816;53.582;10.096;2022-10-16T00:26:21;100682.16;;;14.81;94.50
73551;BME280;61816;53.582;10.096;2022-10-16T00:28:50;100695.78;;;14.66;94.70
73551;BME280;61816;53.582;10.096;2022-10-16T00:31:17;100693.16;;;14.58;95.04
73551;BME280;61816;53.582;10.096;2022-10-16T00:33:43;100688.56;;;14.59;95.07
73551;BME280;61816;53.582;10.096;2022-10-16T00:36:12;100690.75;;;14.49;93.41
73551;BME280;61816;53.582;10.096;2022-10-16T00:38:38;100687.69;;;14.73;92.76
73551;BME280;61816;53.582;10.096;2022-10-16T00:41:07;100701.72;;;14.70;92.85
73551;BME280;61816;53.582;10.096;2022-10-16T00:43:38;100706.78;;;14.73;92.00
73551;BME280;61816;53.582;10.096;2022-10-16T00:46:10;100695.63;;;14.68;91.67
73551;BME280;61816;53.582;10.096;2022-10-16T00:48:36;100702.97;;;14.68;90.89
73551;BME280;61816;53.582;10.096;2022-10-16T00:51:04;100706.94;;;14.86;90.60
73551;BME280;61816;53.582;10.096;2022-10-16T00:53:31;100705.19;;;14.64;92.10
73551;BME280;61816;53.582;10.096;2022-10-16T00:55:56;100711.38;;;14.43;95.52
73551;BME280;61816;53.582;10.096;2022-10-16T00:58:22;100712.38;;;14.27;97.51
73551;BME280;61816;53.582;10.096;2022-10-16T01:00:47;100706.00;;;14.20;98.69
73551;BME280;61816;53.582;10.096;2022-10-16T01:03:31;100711.63;;;14.04;99.90
73551;BME280;61816;53.582;10.096;2022-10-16T01:06:12;100713.53;;;13.95;100.00
73551;BME280;61816;53.582;10.096;2022-10-16T01:08:57;100716.47;;;13.94;100.00
73551;BME280;61816;53.582;10.096;2022-10-16T01:11:33;100710.44;;;13.83;100.00
73551;BME280;61816;53.582;10.096;2022-10-16T01:14:13;100707.38;;;13.64;100.00
73551;BME280;61816;53.582;10.096;2022-10-16T01:17:03;100718.06;;;13.65;100.00
73551;BME280;61816;53.582;10.096;2022-10-16T01:19:50;100719.03;;;13.49;100.00
73551;BME280;61816;53.582;10.096;2022-10-16T01:22:20;100715.91;;;13.38;100.00
73551;BME280;61816;53.582;10.096;2022-10-16T01:24:53;100733.44;;;13.58;100.00
73551;BME280;61816;53.582;10.096;2022-10-16T01:27:25;100727.63;;;13.61;100.00
73551;BME280;61816;53.582;10.096;2022-10-16T01:32:41;100733.13;;;13.53;100.00
73551;BME280;61816;53.582;10.096;2022-10-16T01:37:41;100738.16;;;13.64;100.00
73551;BME280;61816;53.582;10.096;2022-10-16T01:40:11;100731.38;;;13.60;100.00
73551;BME280;61816;53.582;10.096;2022-10-16T01:42:41;100732.31;;;13.67;99.27
73551;BME280;61816;53.582;10.096;2022-10-16T01:45:11;100733.28;;;13.74;98.22
73551;BME280;61816;53.582;10.096;2022-10-16T01:47:39;100731.00;;;13.86;96.93
73551;BME280;61816;53.582;10.096;2022-10-16T01:50:06;100728.06;;;13.88;96.57
73551;BME280;61816;53.582;10.096;2022-10-16T01:52:36;100727.34;;;13.94;96.57
73551;BME280;61816;53.582;10.096;2022-10-16T01:55:05;100722.63;;;13.88;95.72
73551;BME280;61816;53.582;10.096;2022-10-16T01:57:33;100723.47;;;13.88;95.85
73551;BME280;61816;53.582;10.096;2022-10-16T02:00:04;100733.59;;;13.79;95.56
73551;BME280;61816;53.582;10.096;2022-10-16T02:02:31;100724.78;;;13.77;96.09
73551;BME280;61816;53.582;10.096;2022-10-16T02:05:03;100733.41;;;13.81;95.61
73551;BME280;61816;53.582;10.096;2022-10-16T02:07:30;100722.53;;;13.81;95.30
73551;BME280;61816;53.582;10.096;2022-10-16T02:09:55;100737.66;;;13.83;95.07
73551;BME280;61816;53.582;10.096;2022-10-16T02:12:28;100732.03;;;13.85;95.00
73551;BME280;61816;53.582;10.096;2022-10-16T02:14:55;100739.69;;;13.81;95.00
73551;BME280;61816;53.582;10.096;2022-10-16T02:17:21;100728.47;;;13.84;94.68
73551;BME280;61816;53.582;10.096;2022-10-16T02:19:48;100728.69;;;13.75;94.43
73551;BME280;61816;53.582;10.096;2022-10-16T02:22:26;100728.47;;;13.84;94.25
73551;BME280;61816;53.582;10.096;2022-10-16T02:25:02;100729.91;;;13.72;94.65
73551;BME280;61816;53.582;10.096;2022-10-16T02:27:33;100737.59;;;13.69;94.77
73551;BME280;61816;53.582;10.096;2022-10-16T02:30:25;100739.41;;;13.76;94.50
73551;BME280;61816;53.582;10.096;2022-10-16T02:32:53;100739.22;;;13.78;94.15
73551;BME280;61816;53.582;10.096;2022-10-16T02:35:21;100731.75;;;13.57;95.74
73551;BME280;61816;53.582;10.096;2022-10-16T02:37:49;100750.81;;;13.49;96.68
73551;BME280;61816;53.582;10.096;2022-10-16T02:40:16;100738.69;;;13.37;97.51
73551;BME280;61816;53.582;10.096;2022-10-16T02:42:42;100741.75;;;13.34;97.72
73551;BME280;61816;53.582;10.096;2022-10-16T02:45:09;100730.94;;;13.17;98.22
73551;BME280;61816;53.582;10.096;2022-10-16T02:47:35;100727.19;;;13.18;98.55
73551;BME280;61816;53.582;10.096;2022-10-16T02:50:01;100731.16;;;13.08;99.14
73551;BME280;61816;53.582;10.096;2022-10-16T02:52:26;100730.69;;;13.04;99.10
73551;BME280;61816;53.582;10.096;2022-10-16T02:54:52;100732.31;;;13.13;98.95
73551;BME280;61816;53.582;10.096;2022-10-16T02:57:18;100747.34;;;13.01;99.23
73551;BME280;61816;53.582;10.096;2022-10-16T02:59:44;100747.69;;;12.98;99.16
73551;BME280;61816;53.582;10.096;2022-10-16T03:02:09;100738.91;;;12.88;99.39
73551;BME280;61816;53.582;10.096;2022-10-16T03:04:35;100748.88;;;12.95;99.49
73551;BME280;61816;53.582;10.096;2022-10-16T03:07:00;100743.69;;;12.77;100.00
73551;BME280;61816;53.582;10.096;2022-10-16T03:09:26;100738.56;;;12.83;100.00
73551;BME280;61816;53.582;10.096;2022-10-16T03:11:51;100743.38;;;12.64;100.00
73551;BME280;61816;53.582;10.096;2022-10-16T03:14:17;100739.34;;;12.60;100.00
73551;BME280;61816;53.582;10.096;2022-10-16T03:16:43;100730.50;;;12.58;100.00
73551;BME280;61816;53.582;10.096;2022-10-16T03:19:08;100729.91;;;12.40;100.00
73551;BME280;61816;53.582;10.096;2022-10-16T03:21:33;100738.44;;;12.20;100.00
73551;BME280;61816;53.582;10.096;2022-10-16T03:23:59;100733.66;;;12.22;100.00
73551;BME280;61816;53.582;10.096;2022-10-16T03:26:24;100733.00;;;12.12;100.00
73551;BME280;61816;53.582;10.096;2022-10-16T03:28:50;100742.16;;;12.11;100.00
73551;BME280;61816;53.582;10.096;2022-10-16T03:31:15;100744.53;;;12.22;100.00
73551;BME280;61816;53.582;10.096;2022-10-16T03:33:40;100737.59;;;12.20;100.00
73551;BME280;61816;53.582;10.096;2022-10-16T03:36:06;100739.97;;;12.15;100.00
73551;BME280;61816;53.582;10.096;2022-10-16T03:38:32;100741.50;;;12.09;100.00
73551;BME280;61816;53.582;10.096;2022-10-16T03:40:57;100745.88;;;12.18;100.00
73551;BME280;61816;53.582;10.096;2022-10-16T03:43:22;100754.03;;;12.10;100.00
73551;BME280;61816;53.582;10.096;2022-10-16T03:45:50;100750.66;;;12.00;100.00
73551;BME280;61816;53.582;10.096;2022-10-16T03:48:15;100749.28;;;12.04;100.00
73551;BME280;61816;53.582;10.096;2022-10-16T03:50:41;100757.25;;;12.06;100.00
73551;BME280;61816;53.582;10.096;2022-10-16T03:53:06;100757.09;;;12.07;100.00
73551;BME280;61816;53.582;10.096;2022-10-16T03:55:32;100760.81;;;12.22;100.00
73551;BME280;61816;53.582;10.096;2022-10-16T03:57:57;100749.44;;;12.11;100.00
73551;BME280;61816;53.582;10.096;2022-10-16T04:00:22;100748.28;;;12.05;100.00
73551;BME280;61816;53.582;10.096;2022-10-16T04:02:48;100751.66;;;12.15;100.00
73551;BME280;61816;53.582;10.096;2022-10-16T04:05:13;100752.34;;;12.09;100.00
73551;BME280;61816;53.582;10.096;2022-10-16T04:07:38;100757.09;;;12.15;100.00
73551;BME280;61816;53.582;10.096;2022-10-16T04:10:04;100765.22;;;12.23;100.00
73551;BME280;61816;53.582;10.096;2022-10-16T04:12:29;100761.16;;;12.19;100.00
73551;BME280;61816;53.582;10.096;2022-10-16T04:14:55;100781.88;;;12.20;100.00
73551;BME280;61816;53.582;10.096;2022-10-16T04:17:20;100780.00;;;12.13;100.00
73551;BME280;61816;53.582;10.096;2022-10-16T04:19:45;100780.47;;;12.25;100.00
73551;BME280;61816;53.582;10.096;2022-10-16T04:22:11;100787.63;;;12.34;100.00
73551;BME280;61816;53.582;10.096;2022-10-16T04:24:36;100787.63;;;12.17;100.00
73551;BME280;61816;53.582;10.096;2022-10-16T04:27:02;100785.75;;;12.26;100.00
73551;BME280;61816;53.582;10.096;2022-10-16T04:29:27;100799.66;;;12.31;100.00
73551;BME280;61816;53.582;10.096;2022-10-16T04:31:53;100795.06;;;12.32;100.00
73551;BME280;61816;53.582;10.096;2022-10-16T04:34:18;100791.00;;;12.36;100.00
73551;BME280;61816;53.582;10.096;2022-10-16T04:36:43;100794.72;;;12.35;99.92
73551;BME280;61816;53.582;10.096;2022-10-16T04:39:09;100790.16;;;12.35;100.00
73551;BME280;61816;53.582;10.096;2022-10-16T04:41:34;100798.28;;;12.35;99.86
73551;BME280;61816;53.582;10.096;2022-10-16T04:43:59;100801.84;;;12.36;99.69
73551;BME280;61816;53.582;10.096;2022-10-16T04:46:25;100802.53;;;12.30;100.00
73551;BME280;61816;53.582;10.096;2022-10-16T04:48:50;100806.97;;;12.22;99.96
73551;BME280;61816;53.582;10.096;2022-10-16T04:51:16;100807.59;;;12.49;99.06
73551;BME280;61816;53.582;10.096;2022-10-16T04:53:41;100804.22;;;12.31;99.70
73551;BME280;61816;53.582;10.096;2022-10-16T04:56:06;100807.97;;;12.30;100.00
73551;BME280;61816;53.582;10.096;2022-10-16T04:58:32;100806.97;;;12.22;100.00
73551;BME280;61816;53.582;10.096;2022-10-16T05:00:58;100811.72;;;12.29;100.00
73551;BME280;61816;53.582;10.096;2022-10-16T05:03:23;100809.50;;;12.24;100.00
73551;BME280;61816;53.582;10.096;2022-10-16T05:05:48;100806.28;;;12.29;100.00
73551;BME280;61816;53.582;10.096;2022-10-16T05:08:15;100819.66;;;12.30;99.42
73551;BME280;61816;53.582;10.096;2022-10-16T05:10:42;100822.41;;;12.22;100.00
73551;BME280;61816;53.582;10.096;2022-10-16T05:13:08;100820.88;;;12.28;100.00
73551;BME280;61816;53.582;10.096;2022-10-16T05:15:33;100830.53;;;12.30;100.00
73551;BME280;61816;53.582;10.096;2022-10-16T05:17:59;100824.09;;;12.23;100.00
73551;BME280;61816;53.582;10.096;2022-10-16T05:20:24;100831.38;;;12.31;100.00
73551;BME280;61816;53.582;10.096;2022-10-16T05:22:49;100842.25;;;12.14;100.00
73551;BME280;61816;53.582;10.096;2022-10-16T05:25:15;100842.22;;;11.98;100.00
73551;BME280;61816;53.582;10.096;2022-10-16T05:27:41;100837.81;;;12.05;100.00
73551;BME280;61816;53.582;10.096;2022-10-16T05:30:06;100836.81;;;12.22;100.00
73551;BME280;61816;53.582;10.096;2022-10-16T05:32:32;100833.25;;;12.14;100.00
73551;BME280;61816;53.582;10.096;2022-10-16T05:34:58;100833.75;;;12.09;100.00
73551;BME280;61816;53.582;10.096;2022-10-16T05:37:26;100842.56;;;12.03;100.00
73551;BME280;61816;53.582;10.096;2022-10-16T05:39:52;100845.28;;;11.87;100.00
73551;BME280;61816;53.582;10.096;2022-10-16T05:42:17;100845.97;;;11.97;100.00
73551;BME280;61816;53.582;10.096;2022-10-16T05:44:43;100853.75;;;11.92;100.00
73551;BME280;61816;53.582;10.096;2022-10-16T05:47:08;100842.94;;;12.00;100.00
73551;BME280;61816;53.582;10.096;2022-10-16T05:49:34;100853.09;;;11.98;100.00
73551;BME280;61816;53.582;10.096;2022-10-16T05:51:59;100841.59;;;12.20;100.00
73551;BME280;61816;53.582;10.096;2022-10-16T05:54:25;100838.50;;;11.99;100.00
73551;BME280;61816;53.582;10.096;2022-10-16T05:56:50;100838.66;;;11.89;100.00
73551;BME280;61816;53.582;10.096;2022-10-16T05:59:16;100828.34;;;12.09;100.00
73551;BME280;61816;53.582;10.096;2022-10-16T06:01:41;100852.75;;;12.17;100.00
73551;BME280;61816;53.582;10.096;2022-10-16T06:04:08;100853.78;;;12.25;100.00
73551;BME280;61816;53.582;10.096;2022-10-16T06:06:33;100858.22;;;12.34;100.00
73551;BME280;61816;53.582;10.096;2022-10-16T06:09:01;100853.09;;;12.31;100.00
73551;BME280;61816;53.582;10.096;2022-10-16T06:11:28;100860.91;;;12.42;100.00
73551;BME280;61816;53.582;10.096;2022-10-16T06:13:56;100865.50;;;12.41;100.00
73551;BME280;61816;53.582;10.096;2022-10-16T06:16:23;100865.66;;;12.48;100.00
73551;BME280;61816;53.582;10.096;2022-10-16T06:18:51;100860.56;;;12.45;100.00
73551;BME280;61816;53.582;10.096;2022-10-16T06:21:18;100863.97;;;12.47;100.00
73551;BME280;61816;53.582;10.096;2022-10-16T06:23:44;100863.28;;;12.37;100.00
73551;BME280;61816;53.582;10.096;2022-10-16T06:26:19;100859.53;;;12.38;100.00
73551;BME280;61816;53.582;10.096;2022-10-16T06:28:46;100867.88;;;12.20;100.00
73551;BME280;61816;53.582;10.096;2022-10-16T06:31:12;100874.50;;;12.34;100.00
73551;BME280;61816;53.582;10.096;2022-10-16T06:33:39;100870.06;;;12.41;100.00
73551;BME280;61816;53.582;10.096;2022-10-16T06:36:07;100878.03;;;12.42;100.00
73551;BME280;61816;53.582;10.096;2022-10-16T06:38:33;100879.56;;;12.29;100.00
73551;BME280;61816;53.582;10.096;2022-10-16T06:40:59;100881.94;;;12.32;100.00
73551;BME280;61816;53.582;10.096;2022-10-16T06:43:24;100888.41;;;12.39;100.00
73551;BME280;61816;53.582;10.096;2022-10-16T06:45:54;100878.91;;;12.43;100.00
73551;BME280;61816;53.582;10.096;2022-10-16T06:48:21;100885.69;;;12.47;100.00
73551;BME280;61816;53.582;10.096;2022-10-16T06:53:42;100887.03;;;12.51;100.00
73551;BME280;61816;53.582;10.096;2022-10-16T06:56:12;100899.94;;;12.57;100.00
73551;BME280;61816;53.582;10.096;2022-10-16T06:58:38;100912.84;;;12.80;100.00
73551;BME280;61816;53.582;10.096;2022-10-16T07:01:04;100914.16;;;12.84;100.00
73551;BME280;61816;53.582;10.096;2022-10-16T07:03:30;100906.38;;;12.81;100.00
73551;BME280;61816;53.582;10.096;2022-10-16T07:05:55;100915.53;;;12.88;100.00
73551;BME280;61816;53.582;10.096;2022-10-16T07:08:21;100908.06;;;12.98;100.00
73551;BME280;61816;53.582;10.096;2022-10-16T07:10:47;100916.34;;;13.21;100.00
73551;BME280;61816;53.582;10.096;2022-10-16T07:13:12;100921.91;;;13.27;100.00
73551;BME280;61816;53.582;10.096;2022-10-16T07:15:39;100929.16;;;13.51;99.29
73551;BME280;61816;53.582;10.096;2022-10-16T07:18:05;100922.88;;;13.51;99.21
73551;BME280;61816;53.582;10.096;2022-10-16T07:20:31;100941.22;;;13.49;99.41
73551;BME280;61816;53.582;10.096;2022-10-16T07:22:56;100927.91;;;13.70;98.54
73551;BME280;61816;53.582;10.096;2022-10-16T07:25:22;100930.47;;;13.95;98.00
73551;BME280;61816;53.582;10.096;2022-10-16T07:27:47;100938.53;;;13.80;97.91
73551;BME280;61816;53.582;10.096;2022-10-16T07:30:13;100934.63;;;13.82;98.10
73551;BME280;61816;53.582;10.096;2022-10-16T07:32:38;100951.91;;;13.98;97.56
73551;BME280;61816;53.582;10.096;2022-10-16T07:35:04;100940.09;;;13.82;98.06
73551;BME280;61816;53.582;10.096;2022-10-16T07:37:30;100948.25;;;13.82;98.50
73551;BME280;61816;53.582;10.096;2022-10-16T07:39:55;100958.75;;;13.85;98.01
73551;BME280;61816;53.582;10.096;2022-10-16T07:42:20;100955.97;;;14.02;97.79
73551;BME280;61816;53.582;10.096;2022-10-16T07:44:46;100956.94;;;14.09;97.09
73551;BME280;61816;53.582;10.096;2022-10-16T07:47:11;100965.00;;;14.25;96.65
73551;BME280;61816;53.582;10.096;2022-10-16T07:49:37;100962.22;;;14.33;96.45
73551;BME280;61816;53.582;10.096;2022-10-16T07:52:02;100971.44;;;14.32;96.29
73551;BME280;61816;53.582;10.096;2022-10-16T07:54:28;100963.84;;;14.51;95.83
73551;BME280;61816;53.582;10.096;2022-10-16T07:56:53;100967.22;;;14.76;94.50
73551;BME280;61816;53.582;10.096;2022-10-16T07:59:19;100970.88;;;14.68;94.02
73551;BME280;61816;53.582;10.096;2022-10-16T08:01:44;100979.69;;;14.70;94.12
73551;BME280;61816;53.582;10.096;2022-10-16T08:04:10;100975.94;;;14.71;94.19
73551;BME280;61816;53.582;10.096;2022-10-16T08:06:38;100982.72;;;14.75;94.40
73551;BME280;61816;53.582;10.096;2022-10-16T08:09:04;100964.31;;;14.77;94.49
73551;BME280;61816;53.582;10.096;2022-10-16T08:11:29;100971.59;;;14.62;94.30
73551;BME280;61816;53.582;10.096;2022-10-16T08:13:54;100981.09;;;14.66;94.32
73551;BME280;61816;53.582;10.096;2022-10-16T08:16:20;100987.22;;;14.68;94.71
73551;BME280;61816;53.582;10.096;2022-10-16T08:18:45;100979.81;;;14.54;94.94
73551;BME280;61816;53.582;10.096;2022-10-16T08:21:16;100993.72;;;14.67;94.52
73551;BME280;61816;53.582;10.096;2022-10-16T08:23:42;100993.63;;;14.75;94.29
73551;BME280;61816;53.582;10.096;2022-10-16T08:26:09;100990.72;;;14.77;94.21
73551;BME280;61816;53.582;10.096;2022-10-16T08:28:35;100995.19;;;14.92;94.08
73551;BME280;61816;53.582;10.096;2022-10-16T08:31:11;100990.31;;;15.03;93.12
73551;BME280;61816;53.582;10.096;2022-10-16T08:33:37;100997.13;;;15.22;91.17
73551;BME280;61816;53.582;10.096;2022-10-16T08:36:04;100999.03;;;15.21;92.33
73551;BME280;61816;53.582;10.096;2022-10-16T08:38:30;101001.25;;;15.70;90.53
73551;BME280;61816;53.582;10.096;2022-10-16T08:49:11;101003.03;;;15.92;87.14
73551;BME280;61816;53.582;10.096;2022-10-16T08:51:39;100997.13;;;16.25;86.23
73551;BME280;61816;53.582;10.096;2022-10-16T08:56:43;101008.66;;;16.42;85.72
73551;BME280;61816;53.582;10.096;2022-10-16T08:59:13;101008.97;;;16.32;86.21
73551;BME280;61816;53.582;10.096;2022-10-16T09:01:41;101024.22;;;16.41;85.83
73551;BME280;61816;53.582;10.096;2022-10-16T09:04:51;101017.66;;;16.21;85.63
73551;BME280;61816;53.582;10.096;2022-10-16T09:07:21;101021.19;;;16.36;85.54
73551;BME280;61816;53.582;10.096;2022-10-16T09:10:21;101023.06;;;16.50;84.39
73551;BME280;61816;53.582;10.096;2022-10-16T09:13:09;101037.13;;;16.69;83.79
73551;BME280;61816;53.582;10.096;2022-10-16T09:16:43;101039.50;;;16.72;84.15
73551;BME280;61816;53.582;10.096;2022-10-16T09:19:00;101033.13;;;16.86;83.12
73551;BME280;61816;53.582;10.096;2022-10-16T09:21:30;101027.25;;;17.11;82.36
73551;BME280;61816;53.582;10.096;2022-10-16T09:23:59;101039.97;;;16.97;82.67
73551;BME280;61816;53.582;10.096;2022-10-16T09:26:25;101031.16;;;17.01;83.16
73551;BME280;61816;53.582;10.096;2022-10-16T09:28:52;101043.41;;;17.05;82.58
73551;BME280;61816;53.582;10.096;2022-10-16T09:31:20;101046.16;;;17.33;81.19
73551;BME280;61816;53.582;10.096;2022-10-16T09:33:50;101041.47;;;17.77;80.07
73551;BME280;61816;53.582;10.096;2022-10-16T09:36:18;101052.91;;;17.31;80.31
73551;BME280;61816;53.582;10.096;2022-10-16T09:38:45;101065.03;;;17.22;80.11
73551;BME280;61816;53.582;10.096;2022-10-16T09:41:20;101068.56;;;16.94;79.07
73551;BME280;61816;53.582;10.096;2022-10-16T09:43:56;101047.31;;;16.75;79.97
73551;BME280;61816;53.582;10.096;2022-10-16T09:46:29;101083.66;;;17.12;78.52
73551;BME280;61816;53.582;10.096;2022-10-16T09:48:57;101048.22;;;17.25;77.81
73551;BME280;61816;53.582;10.096;2022-10-16T09:51:29;101054.16;;;17.28;77.88
73551;BME280;61816;53.582;10.096;2022-10-16T09:54:13;101061.25;;;17.23;77.56
73551;BME280;61816;53.582;10.096;2022-10-16T09:56:38;101058.53;;;17.51;76.72
73551;BME280;61816;53.582;10.096;2022-10-16T09:59:18;101058.78;;;17.28;77.15
73551;BME280;61816;53.582;10.096;2022-10-16T10:01:47;101070.84;;;17.40;77.07
73551;BME280;61816;53.582;10.096;2022-10-16T10:04:13;101082.47;;;17.42;76.68
73551;BME280;61816;53.582;10.096;2022-10-16T10:06:45;101084.84;;;17.24;77.65
73551;BME280;61816;53.582;10.096;2022-10-16T10:09:24;101091.47;;;17.36;77.50
73551;BME280;61816;53.582;10.096;2022-10-16T10:11:57;101090.91;;;17.47;76.91
73551;BME280;61816;53.582;10.096;2022-10-16T10:19:29;101103.13;;;17.94;75.98
73551;BME280;61816;53.582;10.096;2022-10-16T10:21:55;101124.41;;;17.71;76.47
73551;BME280;61816;53.582;10.096;2022-10-16T10:24:20;101113.69;;;17.48;77.22
73551;BME280;61816;53.582;10.096;2022-10-16T10:26:50;101102.47;;;17.71;76.56
73551;BME280;61816;53.582;10.096;2022-10-16T10:37:43;101102.31;;;18.00;75.24
73551;BME280;61816;53.582;10.096;2022-10-16T10:40:28;101104.31;;;17.85;75.66
73551;BME280;61816;53.582;10.096;2022-10-16T10:43:16;101106.03;;;18.68;72.52
73551;BME280;61816;53.582;10.096;2022-10-16T10:45:52;101125.41;;;17.91;75.26
73551;BME280;61816;53.582;10.096;2022-10-16T10:50:57;101106.00;;;17.86;74.47
73551;BME280;61816;53.582;10.096;2022-10-16T10:59:16;101128.06;;;18.12;73.74
73551;BME280;61816;53.582;10.096;2022-10-16T11:01:52;101124.69;;;18.10;72.71
73551;BME280;61816;53.582;10.096;2022-10-16T11:07:19;101123.38;;;18.00;71.33
73551;BME280;61816;53.582;10.096;2022-10-16T11:09:53;101127.16;;;17.99;71.43
73551;BME280;61816;53.582;10.096;2022-10-16T11:12:31;101112.31;;;18.62;69.46
73551;BME280;61816;53.582;10.096;2022-10-16T11:18:16;101111.38;;;18.42;68.50
73551;BME280;61816;53.582;10.096;2022-10-16T11:20:51;101145.25;;;18.28;68.41
73551;BME280;61816;53.582;10.096;2022-10-16T11:23:40;101150.50;;;18.23;69.34
73551;BME280;61816;53.582;10.096;2022-10-16T11:26:20;101126.31;;;18.81;67.93
73551;BME280;61816;53.582;10.096;2022-10-16T11:28:51;101139.22;;;18.87;66.70
73551;BME280;61816;53.582;10.096;2022-10-16T11:31:39;101133.31;;;18.90;67.00
73551;BME280;61816;53.582;10.096;2022-10-16T11:34:10;101140.41;;;18.71;67.88
73551;BME280;61816;53.582;10.096;2022-10-16T11:36:53;101129.94;;;18.40;68.10
73551;BME280;61816;53.582;10.096;2022-10-16T11:39:27;101151.44;;;18.43;68.23
73551;BME280;61816;53.582;10.096;2022-10-16T11:41:55;101163.31;;;18.15;68.16
73551;BME280;61816;53.582;10.096;2022-10-16T11:44:45;101155.44;;;18.06;68.78
73551;BME280;61816;53.582;10.096;2022-10-16T11:50:13;101158.97;;;18.28;68.98
73551;BME280;61816;53.582;10.096;2022-10-16T11:55:32;101168.16;;;18.13;69.17
73551;BME280;61816;53.582;10.096;2022-10-16T11:58:06;101187.53;;;17.84;69.92
73551;BME280;61816;53.582;10.096;2022-10-16T12:00:59;101174.63;;;17.78;70.60
73551;BME280;61816;53.582;10.096;2022-10-16T12:03:33;101180.06;;;17.99;70.60
73551;BME280;61816;53.582;10.096;2022-10-16T12:08:44;101171.34;;;17.89;69.95
73551;BME280;61816;53.582;10.096;2022-10-16T12:16:39;101197.16;;;17.58;71.02
73551;BME280;61816;53.582;10.096;2022-10-16T12:19:16;101201.97;;;17.71;70.59
73551;BME280;61816;53.582;10.096;2022-10-16T12:21:43;101207.44;;;17.71;69.57
73551;BME280;61816;53.582;10.096;2022-10-16T12:24:31;101204.00;;;18.18;68.45
73551;BME280;61816;53.582;10.096;2022-10-16T12:26:57;101198.31;;;18.13;68.91
73551;BME280;61816;53.582;10.096;2022-10-16T12:29:30;101206.81;;;17.97;69.22
73551;BME280;61816;53.582;10.096;2022-10-16T12:31:57;101216.19;;;18.09;69.06
73551;BME280;61816;53.582;10.096;2022-10-16T12:37:24;101220.38;;;17.62;69.92
73551;BME280;61816;53.582;10.096;2022-10-16T12:39:53;101210.88;;;17.80;68.88
73551;BME280;61816;53.582;10.096;2022-10-16T12:42:32;101233.59;;;17.74;68.64
73551;BME280;61816;53.582;10.096;2022-10-16T12:44:58;101224.72;;;17.72;68.90
73551;BME280;61816;53.582;10.096;2022-10-16T12:49:56;101236.19;;;17.82;67.55
73551;BME280;61816;53.582;10.096;2022-10-16T12:52:35;101234.63;;;17.94;66.51
73551;BME280;61816;53.582;10.096;2022-10-16T12:55:02;101269.31;;;18.08;65.38
73551;BME280;61816;53.582;10.096;2022-10-16T13:00:45;101239.91;;;18.24;64.41
73551;BME280;61816;53.582;10.096;2022-10-16T13:09:19;101259.66;;;18.19;63.00
73551;BME280;61816;53.582;10.096;2022-10-16T13:12:12;101248.72;;;18.19;63.42
73551;BME280;61816;53.582;10.096;2022-10-16T13:17:54;101270.28;;;17.79;65.15
73551;BME280;61816;53.582;10.096;2022-10-16T13:23:15;101264.44;;;17.82;65.16
73551;BME280;61816;53.582;10.096;2022-10-16T13:26:16;101286.66;;;18.15;63.69
73551;BME280;61816;53.582;10.096;2022-10-16T13:28:45;101285.88;;;18.00;63.59
73551;BME280;61816;53.582;10.096;2022-10-16T13:31:16;101285.22;;;17.98;64.31
73551;BME280;61816;53.582;10.096;2022-10-16T13:33:47;101289.84;;;18.47;63.12
73551;BME280;61816;53.582;10.096;2022-10-16T13:36:26;101301.84;;;18.67;62.67
73551;BME280;61816;53.582;10.096;2022-10-16T13:39:20;101303.06;;;18.65;63.19
73551;BME280;61816;53.582;10.096;2022-10-16T13:42:09;101298.75;;;19.25;62.20
73551;BME280;61816;53.582;10.096;2022-10-16T13:44:40;101305.03;;;19.12;61.45
73551;BME280;61816;53.582;10.096;2022-10-16T13:47:16;101304.28;;;19.32;60.80
73551;BME280;61816;53.582;10.096;2022-10-16T13:49:42;101299.94;;;19.09;61.74
73551;BME280;61816;53.582;10.096;2022-10-16T13:52:18;101308.03;;;18.83;60.82
73551;BME280;61816;53.582;10.096;2022-10-16T13:54:43;101326.56;;;19.15;59.51
73551;BME280;61816;53.582;10.096;2022-10-16T13:57:13;101308.63;;;18.72;61.14
73551;BME280;61816;53.582;10.096;2022-10-16T13:59:39;101306.22;;;18.96;60.04
73551;BME280;61816;53.582;10.096;2022-10-16T14:02:32;101319.88;;;19.24;59.48
73551;BME280;61816;53.582;10.096;2022-10-16T14:05:03;101327.31;;;18.96;60.34
73551;BME280;61816;53.582;10.096;2022-10-16T14:07:31;101323.31;;;19.40;60.22
73551;BME280;61816;53.582;10.096;2022-10-16T14:10:06;101323.69;;;19.23;59.72